Time;durP1;ratioP1;P1;durP2;ratioP2;P2;SDS_P1;SDS_P2;PMS_P1;PMS_P2;Temp;Humidity;BMP_temperature;BMP_pressure;BME280_temperature;BME280_humidity;BME280_pressure;Samples;Min_cycle;Max_cycle;Signal;HPM_P1;HPM_P2
2021/10/11 00:00:38;;;;;;;;;;;13.10;96.40;;;;;;5074579;28;19911;-77
2021/10/11 00:03:03;;;;;;;;;;;13.10;96.40;;;;;;5075000;28;19912;-77
2021/10/11 00:05:29;;;;;;;;;;;13.10;96.40;;;;;;5074867;28;19911;-77
2021/10/11 00:07:54;;;;;;;;;;;13.10;96.30;;;;;;5074812;28;20007;-76
2021/10/11 00:10:20;;;;;;;;;;;13.10;96.20;;;;;;5074929;28;19905;-76
2021/10/11 00:12:48;;;;;;;;;;;13.00;96.30;;;;;;5074497;28;19919;-77
2021/10/11 00:15:15;;;;;;;;;;;13.00;96.40;;;;;;5074296;28;19911;-77
2021/10/11 00:17:41;;;;;;;;;;;13.00;96.30;;;;;;5074768;28;19944;-77
2021/10/11 00:20:06;;;;;;;;;;;13.00;96.30;;;;;;5074800;28;20336;-76
2021/10/11 00:22:32;;;;;;;;;;;13.00;96.30;;;;;;5056571;28;20006;-77
2021/10/11 00:24:57;;;;;;;;;;;13.10;96.30;;;;;;5074729;28;20281;-76
2021/10/11 00:27:23;;;;;;;;;;;13.10;96.20;;;;;;5074642;28;19905;-76
2021/10/11 00:29:48;;;;;;;;;;;13.00;96.20;;;;;;5073892;28;19999;-77
2021/10/11 00:32:14;;;;;;;;;;;13.00;96.20;;;;;;5074316;28;19911;-77
2021/10/11 00:34:39;;;;;;;;;;;13.00;96.20;;;;;;5074303;28;19931;-77
2021/10/11 00:37:05;;;;;;;;;;;13.00;96.20;;;;;;5074444;28;19908;-77
2021/10/11 00:39:30;;;;;;;;;;;13.00;96.20;;;;;;5074255;28;20006;-77
2021/10/11 00:41:56;;;;;;;;;;;13.00;96.20;;;;;;5074144;28;19905;-76
2021/10/11 00:44:21;;;;;;;;;;;13.00;96.20;;;;;;5073732;28;19916;-77
2021/10/11 00:46:46;;;;;;;;;;;12.90;96.20;;;;;;5074154;28;20349;-77
2021/10/11 00:49:12;;;;;;;;;;;12.90;96.10;;;;;;5074275;28;19937;-77
2021/10/11 00:51:38;;;;;;;;;;;12.90;96.10;;;;;;5074114;28;19999;-76
2021/10/11 00:54:04;;;;;;;;;;;12.90;96.10;;;;;;5073899;28;19920;-77
2021/10/11 00:56:30;;;;;;;;;;;12.90;96.00;;;;;;5073927;28;19930;-77
2021/10/11 00:58:55;;;;;;;;;;;12.80;96.00;;;;;;5073682;28;20379;-77
2021/10/11 01:01:21;;;;;;;;;;;12.80;96.00;;;;;;5074016;28;19911;-77
2021/10/11 01:03:46;;;;;;;;;;;12.90;96.00;;;;;;5073996;28;19904;-77
2021/10/11 01:06:12;;;;;;;;;;;12.90;96.00;;;;;;5073870;28;19983;-77
2021/10/11 01:08:38;;;;;;;;;;;12.80;96.00;;;;;;5073817;28;19911;-77
2021/10/11 01:11:04;;;;;;;;;;;12.80;96.00;;;;;;5074080;28;19905;-77
2021/10/11 01:13:29;;;;;;;;;;;12.90;96.00;;;;;;5073361;28;19974;-77
2021/10/11 01:15:55;;;;;;;;;;;13.00;96.20;;;;;;5073618;28;19904;-77
2021/10/11 01:18:20;;;;;;;;;;;12.90;95.90;;;;;;5073853;28;20273;-77
2021/10/11 01:20:45;;;;;;;;;;;12.90;95.90;;;;;;5073704;28;20269;-78
2021/10/11 01:23:11;;;;;;;;;;;13.00;95.90;;;;;;5073521;28;20376;-77
2021/10/11 01:25:36;;;;;;;;;;;12.90;95.90;;;;;;5055114;28;19950;-77
2021/10/11 01:28:02;;;;;;;;;;;12.90;95.90;;;;;;5072915;28;19970;-77
2021/10/11 01:30:27;;;;;;;;;;;12.90;95.90;;;;;;5073719;28;19904;-76
2021/10/11 01:32:53;;;;;;;;;;;12.90;95.90;;;;;;5073571;28;19920;-77
2021/10/11 01:35:18;;;;;;;;;;;12.90;95.90;;;;;;5073531;28;20327;-77
2021/10/11 01:37:44;;;;;;;;;;;12.90;95.80;;;;;;5073593;28;19905;-77
2021/10/11 01:40:10;;;;;;;;;;;12.90;95.80;;;;;;5073693;28;19926;-77
2021/10/11 01:42:36;;;;;;;;;;;12.90;95.80;;;;;;5072998;28;19905;-77
2021/10/11 01:45:02;;;;;;;;;;;12.90;95.80;;;;;;5055465;28;20337;-77
2021/10/11 01:47:27;;;;;;;;;;;12.90;95.80;;;;;;5074037;28;19956;-77
2021/10/11 01:49:53;;;;;;;;;;;12.80;95.80;;;;;;5073524;28;19905;-77
2021/10/11 01:52:19;;;;;;;;;;;12.80;95.90;;;;;;5073419;28;19904;-77
2021/10/11 01:54:44;;;;;;;;;;;12.70;95.90;;;;;;5073319;28;19916;-77
2021/10/11 01:57:11;;;;;;;;;;;12.70;95.90;;;;;;5072941;28;20352;-76
2021/10/11 01:59:36;;;;;;;;;;;12.60;96.00;;;;;;5073394;28;20042;-77
2021/10/11 02:02:03;;;;;;;;;;;12.60;96.00;;;;;;5073327;28;19969;-77
2021/10/11 02:04:29;;;;;;;;;;;12.60;95.90;;;;;;5073383;28;19912;-77
2021/10/11 02:06:55;;;;;;;;;;;12.60;95.90;;;;;;5073356;28;19905;-76
2021/10/11 02:09:20;;;;;;;;;;;12.50;95.90;;;;;;5073361;28;20371;-77
2021/10/11 02:11:46;;;;;;;;;;;12.50;95.90;;;;;;5054885;28;19908;-78
2021/10/11 02:14:11;;;;;;;;;;;12.50;95.90;;;;;;5073067;28;19935;-77
2021/10/11 02:16:37;;;;;;;;;;;12.40;95.90;;;;;;5055289;28;19904;-76
2021/10/11 02:19:02;;;;;;;;;;;12.40;95.90;;;;;;5073111;28;19913;-77
2021/10/11 02:21:28;;;;;;;;;;;12.40;95.90;;;;;;5073184;28;19908;-76
2021/10/11 02:23:53;;;;;;;;;;;12.40;95.90;;;;;;5073359;28;19911;-77
2021/10/11 02:26:19;;;;;;;;;;;12.30;95.90;;;;;;5072641;28;19974;-77
2021/10/11 02:28:44;;;;;;;;;;;12.30;95.90;;;;;;5061344;28;19967;-77
2021/10/11 02:31:09;;;;;;;;;;;12.30;95.80;;;;;;5071863;28;20349;-77
2021/10/11 02:33:35;;;;;;;;;;;12.30;95.90;;;;;;5072976;28;20422;-77
2021/10/11 02:36:00;;;;;;;;;;;12.20;95.80;;;;;;5075080;28;19908;-77
2021/10/11 02:38:26;;;;;;;;;;;12.20;95.80;;;;;;5075396;28;20067;-77
2021/10/11 02:40:51;;;;;;;;;;;12.20;95.80;;;;;;5076074;28;19904;-77
2021/10/11 02:43:17;;;;;;;;;;;12.20;95.80;;;;;;5076630;28;20277;-76
2021/10/11 02:45:42;;;;;;;;;;;12.20;95.70;;;;;;5076518;28;19931;-76
2021/10/11 02:48:07;;;;;;;;;;;12.10;95.70;;;;;;5076468;28;19912;-76
2021/10/11 02:50:33;;;;;;;;;;;12.10;95.70;;;;;;5076522;28;20357;-77
2021/10/11 02:52:59;;;;;;;;;;;12.10;95.70;;;;;;5076255;28;20013;-77
2021/10/11 02:55:24;;;;;;;;;;;12.00;95.70;;;;;;5075901;28;19973;-77
2021/10/11 02:57:49;;;;;;;;;;;12.00;95.70;;;;;;5076404;28;19904;-77
2021/10/11 03:00:15;;;;;;;;;;;11.90;95.70;;;;;;5076284;28;19995;-77
2021/10/11 03:02:40;;;;;;;;;;;11.90;95.70;;;;;;5076177;28;19951;-77
2021/10/11 03:05:06;;;;;;;;;;;11.80;95.70;;;;;;5076250;28;19905;-77
2021/10/11 03:07:31;;;;;;;;;;;11.80;96.00;;;;;;5076046;28;19904;-76
2021/10/11 03:09:57;;;;;;;;;;;11.80;95.60;;;;;;5075733;28;19905;-76
2021/10/11 03:12:22;;;;;;;;;;;11.80;95.70;;;;;;5075935;28;20336;-77
2021/10/11 03:14:49;;;;;;;;;;;11.80;95.60;;;;;;5076150;28;19931;-77
2021/10/11 03:17:14;;;;;;;;;;;11.80;95.60;;;;;;5076097;28;19950;-77
2021/10/11 03:19:40;;;;;;;;;;;11.70;95.50;;;;;;5076034;28;20319;-76
2021/10/11 03:22:05;;;;;;;;;;;11.70;95.60;;;;;;5075843;28;20410;-77
2021/10/11 03:24:31;;;;;;;;;;;11.70;95.50;;;;;;5075492;28;20416;-77
2021/10/11 03:26:56;;;;;;;;;;;11.70;95.50;;;;;;5074515;28;20427;-77
2021/10/11 03:29:22;;;;;;;;;;;11.70;95.60;;;;;;5074243;28;19920;-77
2021/10/11 03:31:47;;;;;;;;;;;11.70;95.60;;;;;;5075591;28;19904;-76
2021/10/11 03:34:14;;;;;;;;;;;11.60;95.50;;;;;;5075593;28;19913;-76
2021/10/11 03:36:39;;;;;;;;;;;11.60;95.40;;;;;;5075667;28;19908;-77
2021/10/11 03:39:06;;;;;;;;;;;11.60;95.50;;;;;;5075130;28;19904;-76
2021/10/11 03:41:33;;;;;;;;;;;11.50;95.50;;;;;;5075388;28;20415;-77
2021/10/11 03:43:59;;;;;;;;;;;11.50;95.50;;;;;;5075416;28;19927;-77
2021/10/11 03:46:24;;;;;;;;;;;11.50;95.40;;;;;;5075037;28;20369;-77
2021/10/11 03:48:50;;;;;;;;;;;11.50;95.40;;;;;;5075094;28;20377;-77
2021/10/11 03:51:15;;;;;;;;;;;11.40;95.40;;;;;;5075090;28;20315;-76
2021/10/11 03:53:41;;;;;;;;;;;11.40;95.50;;;;;;5075178;28;20417;-77
2021/10/11 03:56:06;;;;;;;;;;;11.40;95.50;;;;;;5075094;28;19927;-77
2021/10/11 03:58:31;;;;;;;;;;;11.30;95.50;;;;;;5074183;28;19916;-77
2021/10/11 04:00:57;;;;;;;;;;;11.40;95.50;;;;;;5073741;28;19910;-77
2021/10/11 04:03:22;;;;;;;;;;;11.30;95.40;;;;;;5075054;28;19954;-77
2021/10/11 04:05:48;;;;;;;;;;;11.40;95.40;;;;;;5074632;28;19904;-77
2021/10/11 04:08:16;;;;;;;;;;;11.30;95.30;;;;;;5074908;28;19905;-77
2021/10/11 04:11:27;;;;;;;;;;;11.20;95.30;;;;;;5074875;28;19904;-77
2021/10/11 04:13:27;;;;;;;;;;;11.20;95.40;;;;;;5063861;28;20276;-77
2021/10/11 04:15:53;;;;;;;;;;;11.20;95.50;;;;;;5074817;28;19904;-76
2021/10/11 04:18:18;;;;;;;;;;;11.10;95.50;;;;;;5073467;28;19904;-76
2021/10/11 04:20:44;;;;;;;;;;;11.10;95.50;;;;;;5074218;28;20377;-76
2021/10/11 04:23:10;;;;;;;;;;;11.10;95.60;;;;;;5074718;28;20398;-77
2021/10/11 04:25:35;;;;;;;;;;;11.10;95.60;;;;;;5074496;28;20369;-76
2021/10/11 04:28:01;;;;;;;;;;;11.10;95.60;;;;;;5074358;28;20006;-76
2021/10/11 04:30:26;;;;;;;;;;;11.10;95.60;;;;;;5056710;28;19914;-77
2021/10/11 04:32:52;;;;;;;;;;;11.10;95.60;;;;;;5074342;28;20399;-77
2021/10/11 04:35:17;;;;;;;;;;;11.00;95.60;;;;;;5073968;28;19908;-77
2021/10/11 04:37:43;;;;;;;;;;;11.00;95.60;;;;;;5074305;28;19904;-77
2021/10/11 04:40:08;;;;;;;;;;;11.00;95.60;;;;;;5056373;28;19905;-77
2021/10/11 04:42:34;;;;;;;;;;;11.00;95.70;;;;;;5074373;28;19904;-77
2021/10/11 04:44:59;;;;;;;;;;;11.00;95.70;;;;;;5074175;28;19931;-77
2021/10/11 04:47:25;;;;;;;;;;;11.00;95.70;;;;;;5074119;28;20345;-77
2021/10/11 04:49:50;;;;;;;;;;;11.00;95.70;;;;;;5055854;28;19967;-77
2021/10/11 04:52:16;;;;;;;;;;;11.00;95.70;;;;;;5074205;28;19904;-77
2021/10/11 04:54:41;;;;;;;;;;;10.90;95.70;;;;;;5074004;28;19935;-77
2021/10/11 04:57:07;;;;;;;;;;;11.00;95.70;;;;;;5074012;28;19904;-76
2021/10/11 04:59:32;;;;;;;;;;;11.00;95.80;;;;;;5072998;28;19908;-77
2021/10/11 05:01:58;;;;;;;;;;;11.00;95.70;;;;;;5073915;28;20019;-78
2021/10/11 05:04:23;;;;;;;;;;;11.00;95.70;;;;;;5073355;28;19912;-77
2021/10/11 05:06:48;;;;;;;;;;;11.00;95.70;;;;;;5055945;28;19905;-77
2021/10/11 05:09:14;;;;;;;;;;;11.00;95.60;;;;;;5074047;28;20455;-74
2021/10/11 05:11:39;;;;;;;;;;;11.00;95.60;;;;;;5073983;28;19912;-75
2021/10/11 05:14:05;;;;;;;;;;;11.00;95.60;;;;;;5055819;28;19913;-75
2021/10/11 05:16:33;;;;;;;;;;;11.00;95.50;;;;;;5073634;28;19926;-76
2021/10/11 05:18:59;;;;;;;;;;;11.00;95.50;;;;;;5073281;28;19904;-75
2021/10/11 05:21:25;;;;;;;;;;;11.00;95.50;;;;;;5073732;28;19911;-75
2021/10/11 05:23:50;;;;;;;;;;;11.00;95.40;;;;;;5073654;28;19991;-76
2021/10/11 05:26:16;;;;;;;;;;;10.90;95.40;;;;;;5055807;28;19943;-76
2021/10/11 05:28:41;;;;;;;;;;;10.90;95.40;;;;;;5073478;28;19916;-76
2021/10/11 05:31:07;;;;;;;;;;;10.90;95.40;;;;;;5073690;28;19910;-76
2021/10/11 05:33:33;;;;;;;;;;;10.90;95.40;;;;;;5073049;28;19916;-76
2021/10/11 05:35:59;;;;;;;;;;;10.90;95.40;;;;;;5073464;28;19911;-77
2021/10/11 05:38:25;;;;;;;;;;;10.90;95.30;;;;;;5073525;28;19905;-77
2021/10/11 05:40:51;;;;;;;;;;;10.90;95.50;;;;;;5073634;28;19904;-76
2021/10/11 05:43:16;;;;;;;;;;;10.90;95.50;;;;;;5055431;28;19905;-77
2021/10/11 05:45:42;;;;;;;;;;;10.80;95.50;;;;;;5073495;28;19909;-76
2021/10/11 05:48:07;;;;;;;;;;;10.90;95.50;;;;;;5072869;28;19908;-77
2021/10/11 05:50:32;;;;;;;;;;;10.90;95.50;;;;;;5073355;28;20019;-74
2021/10/11 05:52:58;;;;;;;;;;;10.90;95.40;;;;;;5073213;28;19913;-76
2021/10/11 05:55:23;;;;;;;;;;;10.90;95.40;;;;;;5055454;28;20323;-76
2021/10/11 05:57:49;;;;;;;;;;;10.90;95.30;;;;;;5055381;28;20261;-74
2021/10/11 06:00:15;;;;;;;;;;;10.90;95.30;;;;;;5073306;28;19904;-77
2021/10/11 06:02:40;;;;;;;;;;;10.80;95.30;;;;;;5072842;28;19919;-75
2021/10/11 06:05:06;;;;;;;;;;;10.80;95.40;;;;;;5073177;28;19911;-78
2021/10/11 06:07:32;;;;;;;;;;;10.80;95.50;;;;;;5073363;28;19958;-75
2021/10/11 06:09:57;;;;;;;;;;;10.80;95.50;;;;;;5073714;28;19904;-77
2021/10/11 06:12:23;;;;;;;;;;;10.80;95.50;;;;;;5076945;28;19909;-76
2021/10/11 06:14:48;;;;;;;;;;;10.80;95.50;;;;;;5077102;28;19908;-75
2021/10/11 06:17:13;;;;;;;;;;;10.90;95.50;;;;;;5058567;28;19911;-75
2021/10/11 06:19:39;;;;;;;;;;;10.90;95.60;;;;;;5076983;28;19912;-75
2021/10/11 06:22:04;;;;;;;;;;;10.90;95.50;;;;;;5076782;28;19904;-76
2021/10/11 06:24:30;;;;;;;;;;;11.00;95.60;;;;;;5076857;28;19975;-76
2021/10/11 06:26:57;;;;;;;;;;;11.00;95.60;;;;;;5059047;28;19912;-76
2021/10/11 06:29:23;;;;;;;;;;;11.00;95.50;;;;;;5076607;28;19963;-76
2021/10/11 06:31:48;;;;;;;;;;;11.10;95.50;;;;;;5076254;28;19950;-70
2021/10/11 06:34:14;;;;;;;;;;;11.20;95.50;;;;;;5076571;28;19965;-74
2021/10/11 06:36:39;;;;;;;;;;;11.20;95.40;;;;;;5076558;28;20411;-74
2021/10/11 06:39:05;;;;;;;;;;;11.20;95.40;;;;;;5076631;28;19911;-74
2021/10/11 06:41:30;;;;;;;;;;;11.20;95.40;;;;;;5076672;28;19905;-73
2021/10/11 06:43:56;;;;;;;;;;;11.30;95.40;;;;;;5058567;28;19911;-74
2021/10/11 06:46:21;;;;;;;;;;;11.30;95.70;;;;;;5076039;28;20316;-74
2021/10/11 06:48:47;;;;;;;;;;;11.30;95.30;;;;;;5076482;28;19946;-74
2021/10/11 06:51:12;;;;;;;;;;;11.40;95.30;;;;;;5076381;28;19967;-74
2021/10/11 06:53:38;;;;;;;;;;;11.40;95.30;;;;;;5076316;28;19965;-74
2021/10/11 06:56:04;;;;;;;;;;;11.40;95.30;;;;;;5076290;28;19904;-73
2021/10/11 06:58:29;;;;;;;;;;;11.40;95.30;;;;;;5058146;28;19947;-74
2021/10/11 07:00:54;;;;;;;;;;;11.40;95.30;;;;;;5075751;28;19904;-74
2021/10/11 07:03:24;;;;;;;;;;;11.50;95.30;;;;;;5076090;28;19904;-74
2021/10/11 07:05:50;;;;;;;;;;;11.40;95.30;;;;;;5076101;28;19990;-75
2021/10/11 07:08:16;;;;;;;;;;;11.50;95.40;;;;;;5076006;28;19904;-74
2021/10/11 07:10:41;;;;;;;;;;;11.50;95.40;;;;;;5076042;28;19904;-75
2021/10/11 07:13:07;;;;;;;;;;;11.60;95.30;;;;;;5076453;28;19912;-75
2021/10/11 07:15:33;;;;;;;;;;;11.60;95.40;;;;;;5075675;28;19916;-74
2021/10/11 07:17:59;;;;;;;;;;;11.70;95.30;;;;;;5075820;28;20357;-75
2021/10/11 07:20:25;;;;;;;;;;;11.70;95.30;;;;;;5057999;28;19941;-75
2021/10/11 07:22:50;;;;;;;;;;;11.70;95.30;;;;;;5074687;28;20017;-74
2021/10/11 07:25:16;;;;;;;;;;;11.70;95.30;;;;;;5076005;28;19905;-76
2021/10/11 07:27:41;;;;;;;;;;;11.80;95.30;;;;;;5075629;28;19912;-75
2021/10/11 07:30:07;;;;;;;;;;;11.90;95.20;;;;;;5075041;28;19961;-74
2021/10/11 07:32:32;;;;;;;;;;;11.80;95.30;;;;;;5075561;28;19908;-74
2021/10/11 07:34:59;;;;;;;;;;;11.80;95.30;;;;;;5075412;28;19908;-74
2021/10/11 07:37:24;;;;;;;;;;;11.80;95.40;;;;;;5057547;28;19904;-74
2021/10/11 07:39:50;;;;;;;;;;;11.90;95.40;;;;;;5075325;28;20357;-74
2021/10/11 07:42:16;;;;;;;;;;;11.90;95.30;;;;;;5075385;28;19904;-74
2021/10/11 07:44:41;;;;;;;;;;;11.90;95.30;;;;;;5074926;28;19904;-74
2021/10/11 07:47:07;;;;;;;;;;;12.00;95.40;;;;;;5075273;28;19951;-75
2021/10/11 07:49:32;;;;;;;;;;;11.90;95.30;;;;;;5075264;28;19904;-75
2021/10/11 07:51:58;;;;;;;;;;;12.00;95.40;;;;;;5075191;28;19936;-75
2021/10/11 07:54:23;;;;;;;;;;;12.10;95.40;;;;;;5075059;28;19958;-76
2021/10/11 07:56:49;;;;;;;;;;;12.10;95.30;;;;;;5075224;28;19950;-75
2021/10/11 07:59:14;;;;;;;;;;;12.10;95.60;;;;;;5074642;28;19919;-76
2021/10/11 08:01:40;;;;;;;;;;;12.10;95.30;;;;;;5057045;28;19910;-76
2021/10/11 08:04:05;;;;;;;;;;;12.10;95.30;;;;;;5075037;28;19912;-75
2021/10/11 08:06:32;;;;;;;;;;;12.10;95.30;;;;;;5074939;28;19904;-74
2021/10/11 08:08:58;;;;;;;;;;;12.10;95.30;;;;;;5056917;28;19957;-75
2021/10/11 08:11:23;;;;;;;;;;;12.20;95.30;;;;;;5074840;28;19908;-74
2021/10/11 08:13:48;;;;;;;;;;;12.30;95.30;;;;;;5074290;28;20369;-74
2021/10/11 08:16:14;;;;;;;;;;;12.40;95.30;;;;;;5075225;28;19920;-75
2021/10/11 08:18:39;;;;;;;;;;;12.50;95.20;;;;;;5074676;28;20260;-75
2021/10/11 08:21:05;;;;;;;;;;;12.60;95.20;;;;;;5074580;28;20357;-75
2021/10/11 08:23:35;;;;;;;;;;;12.70;95.10;;;;;;5074686;28;19912;-74
2021/10/11 08:26:01;;;;;;;;;;;12.60;95.10;;;;;;5074512;28;20305;-75
2021/10/11 08:28:26;;;;;;;;;;;12.70;95.20;;;;;;5057855;28;19967;-75
2021/10/11 08:30:54;;;;;;;;;;;12.70;95.20;;;;;;5074311;28;19942;-74
2021/10/11 08:33:19;;;;;;;;;;;12.80;95.20;;;;;;5074133;28;19920;-75
2021/10/11 08:35:45;;;;;;;;;;;12.80;95.20;;;;;;5073145;28;19990;-74
2021/10/11 08:38:10;;;;;;;;;;;12.80;95.30;;;;;;5074316;28;19911;-75
2021/10/11 08:40:36;;;;;;;;;;;12.80;95.30;;;;;;5074393;28;19911;-74
2021/10/11 08:43:01;;;;;;;;;;;12.90;95.30;;;;;;5073821;28;19941;-75
2021/10/11 08:45:27;;;;;;;;;;;13.00;95.30;;;;;;5074080;28;19904;-75
2021/10/11 08:47:52;;;;;;;;;;;13.10;95.30;;;;;;5072677;28;19904;-75
2021/10/11 08:50:18;;;;;;;;;;;13.20;95.20;;;;;;5074186;28;20349;-74
2021/10/11 08:52:45;;;;;;;;;;;13.20;95.30;;;;;;5074172;28;20353;-75
2021/10/11 08:55:11;;;;;;;;;;;13.20;95.40;;;;;;5074236;28;20353;-74
2021/10/11 08:57:36;;;;;;;;;;;13.30;95.30;;;;;;5073594;28;19965;-75
2021/10/11 09:00:12;;;;;;;;;;;13.40;95.30;;;;;;5074073;28;19927;-75
2021/10/11 09:02:55;;;;;;;;;;;13.40;95.30;;;;;;5073954;28;19904;-76
2021/10/11 09:05:22;;;;;;;;;;;13.50;95.40;;;;;;5074055;28;19911;-75
2021/10/11 09:07:56;;;;;;;;;;;13.60;95.30;;;;;;5074028;28;19904;-76
2021/10/11 09:10:21;;;;;;;;;;;13.60;95.30;;;;;;5073433;28;20345;-75
2021/10/11 09:12:47;;;;;;;;;;;13.70;95.40;;;;;;5073730;28;20504;-75
2021/10/11 09:15:13;;;;;;;;;;;13.70;95.30;;;;;;5073770;28;19912;-75
2021/10/11 09:17:48;;;;;;;;;;;13.80;95.40;;;;;;5073880;28;19995;-75
2021/10/11 09:20:16;;;;;;;;;;;13.90;95.40;;;;;;5072323;28;20368;-76
2021/10/11 09:22:43;;;;;;;;;;;14.10;95.40;;;;;;5073871;28;19905;-75
2021/10/11 09:25:09;;;;;;;;;;;14.20;95.30;;;;;;5073295;28;20376;-76
2021/10/11 09:27:41;;;;;;;;;;;14.30;95.20;;;;;;5073662;28;19958;-76
2021/10/11 09:30:10;;;;;;;;;;;14.40;95.20;;;;;;5072490;28;19917;-76
2021/10/11 09:32:36;;;;;;;;;;;14.40;95.10;;;;;;5073669;28;20352;-79
2021/10/11 09:35:21;;;;;;;;;;;14.50;95.10;;;;;;5073827;28;19923;-77
2021/10/11 09:37:50;;;;;;;;;;;14.50;95.10;;;;;;5073045;28;19904;-78
2021/10/11 09:40:17;;;;;;;;;;;14.50;95.20;;;;;;5073013;28;19957;-78
2021/10/11 09:42:43;;;;;;;;;;;14.50;95.30;;;;;;5073515;28;19909;-78
2021/10/11 09:45:08;;;;;;;;;;;14.60;95.40;;;;;;5074176;28;19904;-78
2021/10/11 09:50:00;;;;;;;;;;;14.80;95.30;;;;;;5077652;28;19943;-78
2021/10/11 09:52:26;;;;;;;;;;;14.80;95.20;;;;;;5077651;28;19911;-77
2021/10/11 09:54:52;;;;;;;;;;;14.90;95.20;;;;;;5075786;28;19916;-78
2021/10/11 09:57:19;;;;;;;;;;;14.80;95.10;;;;;;5077569;28;19973;-79
2021/10/11 09:59:44;;;;;;;;;;;14.80;95.50;;;;;;5077499;28;19911;-79
2021/10/11 10:02:10;;;;;;;;;;;14.80;95.30;;;;;;5077469;28;19904;-79
2021/10/11 10:04:39;;;;;;;;;;;14.80;95.20;;;;;;5077329;28;19932;-79
2021/10/11 10:07:06;;;;;;;;;;;14.90;95.30;;;;;;5077355;28;19910;-77
2021/10/11 10:09:33;;;;;;;;;;;15.00;95.30;;;;;;5076766;28;19911;-79
2021/10/11 10:12:03;;;;;;;;;;;15.00;95.30;;;;;;5077201;28;19904;-77
2021/10/11 10:14:31;;;;;;;;;;;15.00;95.30;;;;;;5075902;28;19938;-77
2021/10/11 10:16:57;;;;;;;;;;;15.00;95.30;;;;;;5077161;28;19958;-78
2021/10/11 10:19:33;;;;;;;;;;;15.00;95.30;;;;;;5077059;28;20277;-77
2021/10/11 10:22:01;;;;;;;;;;;15.00;95.40;;;;;;5077017;28;19904;-77
2021/10/11 10:24:29;;;;;;;;;;;14.90;95.40;;;;;;5075316;28;19908;-77
2021/10/11 10:27:01;;;;;;;;;;;14.90;95.60;;;;;;5075616;28;19911;-77
2021/10/11 10:29:26;;;;;;;;;;;15.00;95.70;;;;;;5076707;28;20054;-77
2021/10/11 10:31:52;;;;;;;;;;;15.10;95.60;;;;;;5076686;28;19962;-76
2021/10/11 10:34:19;;;;;;;;;;;15.10;95.50;;;;;;5076805;28;19958;-76
2021/10/11 10:36:45;;;;;;;;;;;15.20;95.50;;;;;;5059077;28;19997;-77
2021/10/11 10:39:14;;;;;;;;;;;15.20;95.50;;;;;;5076103;28;20050;-77
2021/10/11 10:41:44;;;;;;;;;;;15.30;95.50;;;;;;5058691;28;20029;-77
2021/10/11 10:44:11;;;;;;;;;;;15.30;95.50;;;;;;5076431;28;20007;-77
2021/10/11 10:46:48;;;;;;;;;;;15.40;95.50;;;;;;5076546;28;19904;-77
2021/10/11 10:49:13;;;;;;;;;;;15.50;95.60;;;;;;5076524;28;19915;-77
2021/10/11 10:51:41;;;;;;;;;;;15.50;95.60;;;;;;5076416;28;19904;-76
2021/10/11 10:54:07;;;;;;;;;;;15.70;95.50;;;;;;5075868;28;19943;-77
2021/10/11 10:56:32;;;;;;;;;;;15.80;95.40;;;;;;5076269;28;20289;-77
2021/10/11 10:59:02;;;;;;;;;;;15.70;95.40;;;;;;5076299;28;19912;-78
2021/10/11 11:01:28;;;;;;;;;;;15.60;95.50;;;;;;5076250;28;19908;-77
2021/10/11 11:03:53;;;;;;;;;;;15.50;95.60;;;;;;5058211;28;20415;-77
2021/10/11 11:06:29;;;;;;;;;;;15.60;95.60;;;;;;5075788;28;19905;-72
2021/10/11 11:08:55;;;;;;;;;;;15.70;95.60;;;;;;5076142;28;19904;-75
2021/10/11 11:11:20;;;;;;;;;;;15.80;95.60;;;;;;5075932;28;19905;-76
2021/10/11 11:13:46;;;;;;;;;;;15.80;95.80;;;;;;5076044;28;19912;-79
2021/10/11 11:16:11;;;;;;;;;;;15.90;95.50;;;;;;5076026;28;19905;-77
2021/10/11 11:18:38;;;;;;;;;;;15.90;95.40;;;;;;5075979;28;19926;-81
2021/10/11 11:21:04;;;;;;;;;;;16.00;95.30;;;;;;5075427;28;19905;-78
2021/10/11 11:23:34;;;;;;;;;;;15.90;95.40;;;;;;5075877;28;19950;-79
2021/10/11 11:26:04;;;;;;;;;;;15.90;95.60;;;;;;5075739;28;20281;-77
2021/10/11 11:28:30;;;;;;;;;;;16.10;95.50;;;;;;5075361;28;20006;-76
2021/10/11 11:31:03;;;;;;;;;;;16.20;95.50;;;;;;5075758;28;19955;-78
2021/10/11 11:33:30;;;;;;;;;;;16.20;95.50;;;;;;5075843;28;19923;-77
2021/10/11 11:35:56;;;;;;;;;;;16.40;95.50;;;;;;5075184;28;19904;-78
2021/10/11 11:38:23;;;;;;;;;;;16.50;95.40;;;;;;5075468;28;19904;-77
2021/10/11 11:40:51;;;;;;;;;;;16.60;95.40;;;;;;5057590;28;19904;-79
2021/10/11 11:43:16;;;;;;;;;;;16.60;95.40;;;;;;5075613;28;19908;-80
2021/10/11 11:45:43;;;;;;;;;;;16.70;95.40;;;;;;5075330;28;20053;-78
2021/10/11 11:48:22;;;;;;;;;;;16.80;95.40;;;;;;5075481;28;19934;-78
2021/10/11 11:50:52;;;;;;;;;;;16.90;95.40;;;;;;5074772;28;20372;-78
2021/10/11 11:53:19;;;;;;;;;;;16.90;95.40;;;;;;5075301;28;19913;-78
2021/10/11 11:55:46;;;;;;;;;;;16.90;95.30;;;;;;5075267;28;19905;-77
2021/10/11 11:58:14;;;;;;;;;;;16.90;95.20;;;;;;5075172;28;19927;-78
2021/10/11 12:00:44;;;;;;;;;;;16.80;95.20;;;;;;5075053;28;19904;-80
2021/10/11 12:03:10;;;;;;;;;;;16.60;95.20;;;;;;5057058;28;19999;-78
2021/10/11 12:05:36;;;;;;;;;;;16.40;95.40;;;;;;5074466;28;19911;-78
2021/10/11 12:08:02;;;;;;;;;;;16.30;95.50;;;;;;5074356;28;19904;-79
2021/10/11 12:10:28;;;;;;;;;;;16.30;95.70;;;;;;5074924;28;20335;-78
2021/10/11 12:12:57;;;;;;;;;;;16.40;95.70;;;;;;5074764;28;19904;-79
2021/10/11 12:15:23;;;;;;;;;;;16.60;95.70;;;;;;5074912;28;19904;-78
2021/10/11 12:17:48;;;;;;;;;;;16.70;95.70;;;;;;5074697;28;19998;-78
2021/10/11 12:20:15;;;;;;;;;;;16.70;95.60;;;;;;5074162;28;19911;-77
2021/10/11 12:22:40;;;;;;;;;;;16.80;95.60;;;;;;5074612;28;19927;-79
2021/10/11 12:25:07;;;;;;;;;;;16.80;95.40;;;;;;5074678;28;20346;-79
2021/10/11 12:27:33;;;;;;;;;;;16.70;95.40;;;;;;5074599;28;19910;-79
2021/10/11 12:30:02;;;;;;;;;;;16.50;95.50;;;;;;5074393;28;19940;-78
2021/10/11 12:32:31;;;;;;;;;;;16.30;95.50;;;;;;5074548;28;20384;-79
2021/10/11 12:34:58;;;;;;;;;;;16.20;95.60;;;;;;5055847;28;19912;-79
2021/10/11 12:37:24;;;;;;;;;;;16.10;95.60;;;;;;5074288;28;20300;-79
2021/10/11 12:39:50;;;;;;;;;;;16.00;95.60;;;;;;5074252;28;19905;-79
2021/10/11 12:42:21;;;;;;;;;;;15.90;95.60;;;;;;5074037;28;19966;-77
2021/10/11 12:44:49;;;;;;;;;;;15.80;95.50;;;;;;5074153;28;19910;-78
2021/10/11 12:47:25;;;;;;;;;;;15.70;95.60;;;;;;5074104;28;20253;-78
2021/10/11 12:49:55;;;;;;;;;;;15.50;95.50;;;;;;5073669;28;19954;-79
2021/10/11 12:52:29;;;;;;;;;;;15.30;95.70;;;;;;5074093;28;20019;-77
2021/10/11 12:55:02;;;;;;;;;;;15.20;95.80;;;;;;5074128;28;19916;-78
2021/10/11 12:57:29;;;;;;;;;;;15.00;95.80;;;;;;5074089;28;19904;-78
2021/10/11 12:59:54;;;;;;;;;;;14.80;95.90;;;;;;5074106;28;19905;-78
2021/10/11 13:02:20;;;;;;;;;;;14.80;95.90;;;;;;5073373;28;19912;-81
2021/10/11 13:04:45;;;;;;;;;;;14.70;95.70;;;;;;5073944;28;19971;-79
2021/10/11 13:07:10;;;;;;;;;;;14.60;95.80;;;;;;5073871;28;19904;-78
2021/10/11 13:09:36;;;;;;;;;;;14.60;96.00;;;;;;5073659;28;19904;-79
2021/10/11 13:12:01;;;;;;;;;;;14.70;95.90;;;;;;5073789;28;19905;-77
2021/10/11 13:14:27;;;;;;;;;;;14.80;95.90;;;;;;5073750;28;20697;-76
2021/10/11 13:16:52;;;;;;;;;;;14.80;95.90;;;;;;5073248;28;19966;-77
2021/10/11 13:19:17;;;;;;;;;;;15.00;95.90;;;;;;5073304;28;19957;-76
2021/10/11 13:21:43;;;;;;;;;;;15.00;95.60;;;;;;5073272;28;19912;-78
2021/10/11 13:24:08;;;;;;;;;;;14.90;95.80;;;;;;5055735;28;19904;-79
2021/10/11 13:26:35;;;;;;;;;;;14.90;95.80;;;;;;5073702;28;20003;-78
2021/10/11 13:29:15;;;;;;;;;;;15.00;95.90;;;;;;5073406;28;19946;-78
2021/10/11 13:34:57;;;;;;;;;;;15.50;95.80;;;;;;5073495;28;19983;-78
2021/10/11 14:34:07;;;;;;;;;;;15.80;95.60;;;;;;5076469;28;19913;-77
2021/10/11 16:01:30;;;;;;;;;;;15.30;95.50;;;;;;5053482;28;19912;-80
2021/10/11 16:03:55;;;;;;;;;;;15.20;95.50;;;;;;5053622;28;19926;-80
2021/10/11 16:06:22;;;;;;;;;;;15.20;95.50;;;;;;5054766;28;20353;-79
2021/10/11 16:08:48;;;;;;;;;;;15.10;95.60;;;;;;5054930;28;19905;-79
2021/10/11 16:11:14;;;;;;;;;;;15.10;95.60;;;;;;5054463;28;19915;-79
2021/10/11 16:13:39;;;;;;;;;;;15.00;95.60;;;;;;5054916;28;19912;-79
2021/10/11 16:16:06;;;;;;;;;;;15.00;95.60;;;;;;5054708;28;19905;-80
2021/10/11 16:18:31;;;;;;;;;;;15.00;95.60;;;;;;5054926;28;19904;-78
2021/10/11 16:20:57;;;;;;;;;;;15.00;95.50;;;;;;5054585;28;19927;-79
2021/10/11 16:23:23;;;;;;;;;;;14.90;95.50;;;;;;5054739;28;19997;-78
2021/10/11 16:25:48;;;;;;;;;;;14.80;95.50;;;;;;5054246;28;19905;-78
2021/10/11 16:28:14;;;;;;;;;;;14.70;95.60;;;;;;5054453;28;19916;-79
2021/10/11 16:30:40;;;;;;;;;;;14.80;95.70;;;;;;5054553;28;19908;-79
2021/10/11 16:33:05;;;;;;;;;;;14.70;95.60;;;;;;5054597;28;19904;-79
2021/10/11 16:35:31;;;;;;;;;;;14.60;95.50;;;;;;5054442;28;19904;-78
2021/10/11 16:37:56;;;;;;;;;;;14.60;95.60;;;;;;5054384;28;19905;-80